createdAt,value
2022-08-03T00:01:25.602Z,67.18
2022-08-03T00:03:52.139Z,67.52
2022-08-03T00:06:18.776Z,69.53
2022-08-03T00:08:45.436Z,67.43
2022-08-03T00:11:12.043Z,66.91
2022-08-03T00:13:38.730Z,67.46
2022-08-03T00:16:05.497Z,67.88
2022-08-03T00:18:32.117Z,67.26
2022-08-03T00:20:58.772Z,67.56
2022-08-03T00:23:25.357Z,67.98
2022-08-03T00:25:52.147Z,67.65
2022-08-03T00:28:18.719Z,67.45
2022-08-03T00:30:45.350Z,68.10
2022-08-03T00:33:11.910Z,67.63
2022-08-03T00:35:50.692Z,67.76
2022-08-03T00:38:18.379Z,68.03
2022-08-03T00:40:45.021Z,67.61
2022-08-03T00:43:11.632Z,67.63
2022-08-03T00:45:41.356Z,67.67
2022-08-03T00:48:29.803Z,67.31
2022-08-03T00:50:57.070Z,67.29
2022-08-03T00:53:24.486Z,67.04
2022-08-03T00:55:51.262Z,67.08
2022-08-03T00:58:17.935Z,67.37
2022-08-03T01:00:44.473Z,68.24
2022-08-03T01:03:12.146Z,68.28
2022-08-03T01:06:12.985Z,67.42
2022-08-03T01:09:02.899Z,68.17
2022-08-03T01:12:00.020Z,68.30
2022-08-03T01:14:32.573Z,67.67
2022-08-03T01:17:10.514Z,68.26
2022-08-03T01:19:56.378Z,68.71
2022-08-03T01:22:35.221Z,68.64
2022-08-03T01:25:38.714Z,68.76
2022-08-03T01:28:53.848Z,69.19
2022-08-03T01:31:26.089Z,69.75
2022-08-03T01:33:59.349Z,69.42
2022-08-03T01:36:35.310Z,69.45
2022-08-03T01:39:09.298Z,69.70
2022-08-03T01:41:42.488Z,69.61
2022-08-03T01:44:29.522Z,69.24
2022-08-03T01:46:59.922Z,69.18
2022-08-03T01:49:30.395Z,69.64
2022-08-03T01:52:04.119Z,69.41
2022-08-03T01:54:40.950Z,69.38
2022-08-03T01:57:09.586Z,69.33
2022-08-03T01:59:37.541Z,68.94
2022-08-03T02:02:31.751Z,70.07
2022-08-03T02:04:55.584Z,69.31
2022-08-03T02:07:23.849Z,69.14
2022-08-03T02:09:55.085Z,68.99
2022-08-03T02:12:25.103Z,68.95
2022-08-03T02:14:51.992Z,69.37
2022-08-03T02:17:39.210Z,70.50
2022-08-03T02:20:07.453Z,69.80
2022-08-03T02:22:34.885Z,69.72
2022-08-03T02:25:01.818Z,69.94
2022-08-03T02:27:32.296Z,69.75
2022-08-03T02:30:05.447Z,69.65
2022-08-03T02:32:36.717Z,71.92
2022-08-03T02:35:06.942Z,70.87
2022-08-03T02:37:37.847Z,70.10
2022-08-03T02:40:11.851Z,70.20
2022-08-03T02:42:40.313Z,70.72
2022-08-03T02:45:12.451Z,71.00
2022-08-03T02:47:54.147Z,70.60
2022-08-03T02:50:23.191Z,70.57
2022-08-03T02:52:52.023Z,70.78
2022-08-03T02:55:20.480Z,71.00
2022-08-03T02:57:47.949Z,71.09
2022-08-03T03:00:27.695Z,70.68
2022-08-03T03:03:00.309Z,70.75
2022-08-03T03:05:56.299Z,71.58
2022-08-03T03:08:17.674Z,72.73
2022-08-03T03:10:46.641Z,73.19
2022-08-03T03:13:16.279Z,71.56
2022-08-03T03:15:45.184Z,70.70
2022-08-03T03:18:13.013Z,70.48
2022-08-03T03:20:40.943Z,71.25
2022-08-03T03:23:09.313Z,71.65
2022-08-03T03:25:36.477Z,71.48
2022-08-03T03:28:03.937Z,72.60
2022-08-03T03:30:33.480Z,71.63
2022-08-03T03:33:00.724Z,71.92
2022-08-03T03:35:27.796Z,71.00
2022-08-03T03:37:54.728Z,71.46
2022-08-03T03:40:22.272Z,71.92
2022-08-03T03:42:50.143Z,71.73
2022-08-03T03:45:16.969Z,72.58
2022-08-03T03:47:43.589Z,71.81
2022-08-03T03:50:11.029Z,71.33
2022-08-03T03:52:37.706Z,71.66
2022-08-03T03:55:04.664Z,71.57
2022-08-03T03:57:31.212Z,71.19
2022-08-03T03:59:57.845Z,71.92
2022-08-03T04:02:24.615Z,72.11
2022-08-03T04:05:09.544Z,71.88
2022-08-03T04:08:10.488Z,75.44
2022-08-03T04:11:02.650Z,73.11
2022-08-03T04:13:36.837Z,73.75
2022-08-03T04:16:05.087Z,72.97
2022-08-03T04:18:34.830Z,73.46
2022-08-03T04:21:08.678Z,73.20
2022-08-03T04:23:40.110Z,73.23
2022-08-03T04:26:10.048Z,72.72
2022-08-03T04:28:38.567Z,72.26
2022-08-03T04:31:07.334Z,74.36
2022-08-03T04:33:37.209Z,73.72
2022-08-03T04:36:08.937Z,72.75
2022-08-03T04:38:55.602Z,72.24
2022-08-03T04:41:24.826Z,73.33
2022-08-03T04:43:55.956Z,72.47
2022-08-03T04:46:26.173Z,72.11
2022-08-03T04:48:53.648Z,72.03
2022-08-03T04:51:20.520Z,71.96
2022-08-03T04:53:47.338Z,71.87
2022-08-03T04:56:13.879Z,72.54
2022-08-03T04:58:40.481Z,72.85
2022-08-03T05:01:07.591Z,72.13
2022-08-03T05:03:34.190Z,73.54
2022-08-03T05:06:09.801Z,72.86
2022-08-03T05:08:46.429Z,72.41
2022-08-03T05:11:16.360Z,73.83
2022-08-03T05:13:44.713Z,73.22
2022-08-03T05:16:12.367Z,73.37
2022-08-03T05:18:38.897Z,73.37
2022-08-03T05:21:05.640Z,72.73
2022-08-03T05:23:32.234Z,72.96
2022-08-03T05:25:58.820Z,73.77
2022-08-03T05:28:25.389Z,73.63
2022-08-03T05:30:51.962Z,73.46
2022-08-03T05:33:18.543Z,73.54
2022-08-03T05:35:57.860Z,73.94
2022-08-03T05:38:34.169Z,75.22
2022-08-03T05:41:21.021Z,74.53
2022-08-03T05:43:49.247Z,76.49
2022-08-03T05:46:16.151Z,75.33
2022-08-03T05:48:43.129Z,74.58
2022-08-03T05:51:13.537Z,73.95
2022-08-03T05:53:41.728Z,73.62
2022-08-03T05:56:14.965Z,73.28
2022-08-03T05:58:48.409Z,72.82
2022-08-03T06:01:16.849Z,72.88
2022-08-03T06:03:43.894Z,73.09
2022-08-03T06:06:11.727Z,72.87
2022-08-03T06:08:39.093Z,73.48
2022-08-03T06:11:05.689Z,73.77
2022-08-03T06:13:32.492Z,73.57
2022-08-03T06:15:59.037Z,73.31
2022-08-03T06:18:25.818Z,73.42
2022-08-03T06:20:53.026Z,73.12
2022-08-03T06:23:20.019Z,72.42
2022-08-03T06:25:47.240Z,72.61
2022-08-03T06:28:42.669Z,72.22
2022-08-03T06:31:01.899Z,71.62
2022-08-03T06:34:31.385Z,72.65
2022-08-03T06:36:15.697Z,71.30
2022-08-03T06:38:42.486Z,69.94
2022-08-03T06:41:09.113Z,69.99
2022-08-03T06:44:03.410Z,70.22
2022-08-03T06:46:25.984Z,69.72
2022-08-03T06:48:53.213Z,68.83
2022-08-03T06:51:19.892Z,68.70
2022-08-03T06:53:46.445Z,68.26
2022-08-03T06:56:13.042Z,68.21
2022-08-03T06:58:39.611Z,67.57
2022-08-03T07:01:06.211Z,66.68
2022-08-03T07:03:32.759Z,65.85
2022-08-03T07:05:59.751Z,66.41
2022-08-03T07:08:33.542Z,65.24
2022-08-03T07:11:01.427Z,64.84
2022-08-03T07:13:28.021Z,63.88
2022-08-03T07:15:56.301Z,63.85
2022-08-03T07:18:27.573Z,63.03
2022-08-03T07:20:56.507Z,63.65
2022-08-03T07:23:23.228Z,63.27
2022-08-03T07:25:50.983Z,63.91
2022-08-03T07:28:18.122Z,63.82
2022-08-03T07:30:44.867Z,64.13
2022-08-03T07:33:11.630Z,63.67
2022-08-03T07:35:38.604Z,62.86
2022-08-03T07:38:05.375Z,63.84
2022-08-03T07:40:32.289Z,63.78
2022-08-03T07:45:26.934Z,62.07
2022-08-03T07:47:54.219Z,62.05
2022-08-03T07:50:22.040Z,61.99
2022-08-03T07:52:49.940Z,62.16
2022-08-03T07:55:18.326Z,59.82
2022-08-03T07:57:45.053Z,61.42
2022-08-03T08:00:19.579Z,59.00
2022-08-03T08:02:46.528Z,58.34
2022-08-03T08:05:13.179Z,57.76
2022-08-03T08:07:40.186Z,59.23
2022-08-03T08:10:08.379Z,56.78
2022-08-03T08:12:35.071Z,55.36
2022-08-03T08:15:02.071Z,54.33
2022-08-03T08:17:28.739Z,55.75
2022-08-03T08:19:55.303Z,55.40
2022-08-03T08:22:28.064Z,54.91
2022-08-03T08:24:56.867Z,54.74
2022-08-03T08:27:23.691Z,51.79
2022-08-03T08:29:54.604Z,51.76
2022-08-03T08:32:23.558Z,51.22
2022-08-03T08:34:50.231Z,50.62
2022-08-03T08:37:16.863Z,51.29
2022-08-03T08:39:43.491Z,48.16
2022-08-03T08:42:10.535Z,51.03
2022-08-03T08:44:37.132Z,51.84
2022-08-03T08:47:04.996Z,51.56
2022-08-03T08:49:35.791Z,52.84
2022-08-03T08:52:04.296Z,50.76
2022-08-03T08:54:52.405Z,49.65
2022-08-03T08:57:40.713Z,49.39
2022-08-03T09:00:10.863Z,50.46
2022-08-03T09:02:37.498Z,48.90
2022-08-03T09:05:07.527Z,50.83
2022-08-03T09:07:34.768Z,47.25
2022-08-03T09:10:11.872Z,49.33
2022-08-03T09:12:43.147Z,48.28
2022-08-03T09:15:26.476Z,47.09
2022-08-03T09:17:56.354Z,45.46
2022-08-03T09:20:25.596Z,45.80
2022-08-03T09:23:51.455Z,44.04
2022-08-03T09:26:01.660Z,45.29
2022-08-03T09:28:52.678Z,45.65
2022-08-03T09:31:49.737Z,46.41
2022-08-03T09:34:17.748Z,44.78
2022-08-03T09:36:49.832Z,45.72
2022-08-03T09:39:17.551Z,46.02
2022-08-03T09:41:49.323Z,44.53
2022-08-03T09:44:25.296Z,44.15
2022-08-03T09:46:57.038Z,44.22
2022-08-03T09:49:25.052Z,43.01
2022-08-03T09:52:32.073Z,46.04
2022-08-03T09:54:39.474Z,44.93
2022-08-03T09:57:06.150Z,43.73
2022-08-03T09:59:33.647Z,43.74
2022-08-03T10:02:00.770Z,45.18
2022-08-03T10:04:27.752Z,43.43
2022-08-03T10:07:09.418Z,41.65
2022-08-03T10:09:37.644Z,43.29
2022-08-03T10:12:09.651Z,46.70
2022-08-03T10:14:41.990Z,42.75
2022-08-03T10:17:09.747Z,43.10
2022-08-03T10:19:36.713Z,43.63
2022-08-03T10:22:28.021Z,41.63
2022-08-03T10:25:06.537Z,43.71
2022-08-03T10:27:46.959Z,40.95
2022-08-03T10:30:14.448Z,42.13
2022-08-03T10:32:51.167Z,43.21
2022-08-03T10:35:21.605Z,40.09
2022-08-03T10:38:09.779Z,43.89
2022-08-03T10:40:58.669Z,41.97
2022-08-03T10:43:35.337Z,40.90
2022-08-03T10:46:05.206Z,41.38
2022-08-03T10:48:32.688Z,42.20
2022-08-03T10:50:59.719Z,40.50
2022-08-03T10:53:37.526Z,40.21
2022-08-03T10:56:48.108Z,41.19
2022-08-03T10:59:14.657Z,41.46
2022-08-03T11:02:00.255Z,40.59
2022-08-03T11:04:29.785Z,40.87
2022-08-03T11:07:18.533Z,42.14
2022-08-03T11:09:50.188Z,41.39
2022-08-03T11:12:30.160Z,42.73
2022-08-03T11:15:07.863Z,42.82
2022-08-03T11:17:46.408Z,41.67
2022-08-03T11:20:55.055Z,42.57
2022-08-03T11:24:04.914Z,44.04
2022-08-03T11:26:34.055Z,42.06
2022-08-03T11:29:29.875Z,42.94
2022-08-03T11:31:57.113Z,43.40
2022-08-03T11:34:24.779Z,43.22
2022-08-03T11:37:25.351Z,43.91
2022-08-03T11:39:55.448Z,40.72
2022-08-03T11:42:24.997Z,41.26
2022-08-03T11:44:52.275Z,40.87
2022-08-03T11:47:20.930Z,41.23
2022-08-03T11:49:49.276Z,39.81
2022-08-03T11:52:17.872Z,40.01
2022-08-03T11:54:44.635Z,38.49
2022-08-03T11:57:11.781Z,39.15
2022-08-03T11:59:38.804Z,39.99
2022-08-03T12:02:16.107Z,39.33
2022-08-03T12:04:58.398Z,41.43
2022-08-03T12:08:03.535Z,40.70
2022-08-03T12:10:16.659Z,39.14
2022-08-03T12:12:46.370Z,37.82
2022-08-03T12:15:13.598Z,38.92
2022-08-03T12:17:41.425Z,37.91
2022-08-03T12:20:10.461Z,35.70
2022-08-03T12:22:39.451Z,34.77
2022-08-03T12:25:08.075Z,34.15
2022-08-03T12:27:34.886Z,32.31
2022-08-03T12:30:03.182Z,33.46
2022-08-03T12:32:31.037Z,32.57
2022-08-03T12:35:01.310Z,33.02
2022-08-03T12:37:29.526Z,33.94
2022-08-03T12:40:07.868Z,35.54
2022-08-03T12:42:38.756Z,36.82
2022-08-03T12:45:27.735Z,35.29
2022-08-03T12:47:57.211Z,34.30
2022-08-03T12:50:26.853Z,34.08
2022-08-03T12:52:53.597Z,32.01
2022-08-03T12:55:21.575Z,33.02
2022-08-03T12:57:48.285Z,33.64
2022-08-03T13:00:28.889Z,33.01
2022-08-03T13:03:38.302Z,34.68
2022-08-03T13:05:52.148Z,30.85
2022-08-03T13:08:23.916Z,33.50
2022-08-03T13:10:51.137Z,31.55
2022-08-03T13:13:17.800Z,30.16
2022-08-03T13:15:48.099Z,30.27
2022-08-03T13:18:17.356Z,30.48
2022-08-03T13:20:44.376Z,30.26
2022-08-03T13:23:15.525Z,33.08
2022-08-03T13:25:55.686Z,33.06
2022-08-03T13:28:23.381Z,32.09
2022-08-03T13:30:50.019Z,30.83
2022-08-03T13:33:16.835Z,32.29
2022-08-03T13:35:43.443Z,33.01
2022-08-03T13:38:10.200Z,32.00
2022-08-03T13:40:42.197Z,34.73
2022-08-03T13:43:09.157Z,31.18
2022-08-03T13:45:36.219Z,33.56
2022-08-03T13:48:02.838Z,33.47
2022-08-03T13:50:30.202Z,33.05
2022-08-03T13:52:57.456Z,34.68
2022-08-03T13:55:25.144Z,33.66
2022-08-03T13:58:03.233Z,31.41
2022-08-03T14:00:34.437Z,29.90
2022-08-03T14:03:13.388Z,29.56
2022-08-03T14:05:42.293Z,31.20
2022-08-03T14:08:09.192Z,30.03
2022-08-03T14:10:42.076Z,31.26
2022-08-03T14:13:08.965Z,29.32
2022-08-03T14:15:37.472Z,29.52
2022-08-03T14:18:04.935Z,29.67
2022-08-03T14:20:37.460Z,30.40
2022-08-03T14:23:07.285Z,30.94
2022-08-03T14:25:43.167Z,30.94
2022-08-03T14:28:16.794Z,29.50
2022-08-03T14:30:43.377Z,30.82
2022-08-03T14:33:09.931Z,32.76
2022-08-03T14:35:37.804Z,32.56
2022-08-03T14:38:04.373Z,30.82
2022-08-03T14:40:30.905Z,31.50
2022-08-03T14:42:57.581Z,32.10
2022-08-03T14:45:24.243Z,31.65
2022-08-03T14:50:29.532Z,31.05
2022-08-03T14:50:43.193Z,31.31
2022-08-03T14:53:12.340Z,30.13
2022-08-03T14:55:50.511Z,31.49
2022-08-03T14:58:23.679Z,31.49
2022-08-03T15:00:52.005Z,30.88
2022-08-03T15:03:26.025Z,30.92
2022-08-03T15:05:54.076Z,29.30
2022-08-03T15:08:21.943Z,29.26
2022-08-03T15:10:49.381Z,29.48
2022-08-03T15:13:17.494Z,30.06
2022-08-03T15:15:44.023Z,29.90
2022-08-03T15:18:11.222Z,28.96
2022-08-03T15:20:46.613Z,30.52
2022-08-03T15:23:15.515Z,29.72
2022-08-03T15:26:07.047Z,28.79
2022-08-03T15:28:30.793Z,28.00
2022-08-03T15:30:57.392Z,30.32
2022-08-03T15:33:24.117Z,30.41
2022-08-03T15:35:51.744Z,30.76
2022-08-03T15:38:18.459Z,31.31
2022-08-03T15:40:45.643Z,32.15
2022-08-03T15:43:12.316Z,32.30
2022-08-03T15:45:40.645Z,32.30
2022-08-03T15:48:08.740Z,33.07
2022-08-03T15:50:35.325Z,31.78
2022-08-03T15:53:01.896Z,32.87
2022-08-03T15:55:28.488Z,33.12
2022-08-03T15:59:09.356Z,33.71
2022-08-03T16:00:43.729Z,32.75
2022-08-03T16:03:10.560Z,32.65
2022-08-03T16:05:37.301Z,32.91
2022-08-03T16:08:06.234Z,34.42
2022-08-03T16:10:34.510Z,34.52
2022-08-03T16:13:01.219Z,33.95
2022-08-03T16:15:28.137Z,34.26
2022-08-03T16:17:54.964Z,35.27
2022-08-03T16:20:31.091Z,36.44
2022-08-03T16:23:06.274Z,35.99
2022-08-03T16:25:42.676Z,37.31
2022-08-03T16:28:13.871Z,36.75
2022-08-03T16:30:43.107Z,36.51
2022-08-03T16:33:10.539Z,36.22
2022-08-03T16:35:37.459Z,37.39
2022-08-03T16:38:09.594Z,38.37
2022-08-03T16:40:37.510Z,38.04
2022-08-03T16:43:18.275Z,37.59
2022-08-03T16:45:48.595Z,37.86
2022-08-03T16:48:16.493Z,38.07
2022-08-03T16:50:43.302Z,37.59
2022-08-03T16:53:15.598Z,37.83
2022-08-03T16:55:53.837Z,37.97
2022-08-03T16:58:34.522Z,38.48
2022-08-03T17:01:22.021Z,38.96
2022-08-03T17:04:01.595Z,39.48
2022-08-03T17:06:34.173Z,39.98
2022-08-03T17:09:02.188Z,40.08
2022-08-03T17:11:32.993Z,40.09
2022-08-03T17:14:00.309Z,40.02
2022-08-03T17:16:27.443Z,40.03
2022-08-03T17:19:03.956Z,40.19
2022-08-03T17:21:33.278Z,39.82
2022-08-03T17:24:40.921Z,40.42
2022-08-03T17:28:42.129Z,40.14
2022-08-03T17:30:07.717Z,40.56
2022-08-03T17:32:42.278Z,41.01
2022-08-03T17:35:10.332Z,41.21
2022-08-03T17:37:58.169Z,41.19
2022-08-03T17:40:24.853Z,41.42
2022-08-03T17:42:52.596Z,42.07
2022-08-03T17:45:20.526Z,41.74
2022-08-03T17:47:56.971Z,42.19
2022-08-03T17:50:32.843Z,42.33
2022-08-03T17:53:07.731Z,42.25
2022-08-03T17:55:55.632Z,42.65
2022-08-03T17:58:55.325Z,42.75
2022-08-03T18:02:03.467Z,43.14
2022-08-03T18:04:38.142Z,42.83
2022-08-03T18:07:12.493Z,43.22
2022-08-03T18:10:04.852Z,43.06
2022-08-03T18:13:10.456Z,43.30
2022-08-03T18:15:42.743Z,43.37
2022-08-03T18:18:11.463Z,43.64
2022-08-03T18:20:41.729Z,43.56
2022-08-03T18:23:25.520Z,43.79
2022-08-03T18:25:59.371Z,43.94
2022-08-03T18:28:27.913Z,44.22
2022-08-03T18:30:57.951Z,43.62
2022-08-03T18:34:16.746Z,44.63
2022-08-03T18:36:17.481Z,44.51
2022-08-03T18:38:49.327Z,44.97
2022-08-03T18:41:21.967Z,45.26
2022-08-03T18:44:06.626Z,45.23
2022-08-03T18:46:54.792Z,45.63
2022-08-03T18:49:34.180Z,46.17
2022-08-03T18:52:12.082Z,46.36
2022-08-03T18:55:02.469Z,46.89
2022-08-03T18:57:49.625Z,46.08
2022-08-03T19:00:24.907Z,46.32
2022-08-03T19:03:20.240Z,46.70
2022-08-03T19:06:02.774Z,46.41
2022-08-03T19:08:48.408Z,46.73
2022-08-03T19:12:14.559Z,46.41
2022-08-03T19:14:28.642Z,46.53
2022-08-03T19:17:07.329Z,46.33
2022-08-03T19:19:44.399Z,46.06
2022-08-03T19:22:16.193Z,46.63
2022-08-03T19:25:04.294Z,46.27
2022-08-03T19:27:32.311Z,46.64
2022-08-03T19:30:03.904Z,46.70
2022-08-03T19:35:19.017Z,47.16
2022-08-03T19:37:46.584Z,47.05
2022-08-03T19:40:13.222Z,47.51
2022-08-03T19:42:45.031Z,46.59
2022-08-03T19:45:17.131Z,46.95
2022-08-03T19:47:52.450Z,47.06
2022-08-03T19:50:21.342Z,47.76
2022-08-03T20:01:50.955Z,48.03
2022-08-03T20:04:17.919Z,48.56
2022-08-03T20:07:06.365Z,49.04
2022-08-03T20:09:36.213Z,49.41
2022-08-03T20:12:12.812Z,49.42
2022-08-03T20:14:39.946Z,49.20
2022-08-03T20:17:09.098Z,49.17
2022-08-03T20:19:35.831Z,49.18
2022-08-03T20:22:03.287Z,49.38
2022-08-03T20:24:35.178Z,49.34
2022-08-03T20:27:07.835Z,48.72
2022-08-03T20:30:05.457Z,47.96
2022-08-03T20:32:28.566Z,50.14
2022-08-03T20:34:55.509Z,50.01
2022-08-03T20:37:22.347Z,49.60
2022-08-03T20:39:49.598Z,49.12
2022-08-03T20:42:21.143Z,47.58
2022-08-03T20:44:58.960Z,47.59
2022-08-03T20:47:35.762Z,46.78
2022-08-03T20:50:04.245Z,47.18
2022-08-03T20:52:35.057Z,47.34
2022-08-03T20:55:14.680Z,46.54
2022-08-03T20:57:42.585Z,45.69
2022-08-03T21:00:18.013Z,46.65
2022-08-03T21:02:44.757Z,46.03
2022-08-03T21:05:11.590Z,46.46
2022-08-03T21:08:06.199Z,45.98
2022-08-03T21:10:37.873Z,45.87
2022-08-03T21:13:18.143Z,46.69
2022-08-03T21:16:07.000Z,46.12
2022-08-03T21:18:44.548Z,46.83
2022-08-03T21:21:14.970Z,46.81
2022-08-03T21:23:47.996Z,45.99
2022-08-03T21:26:24.072Z,46.12
2022-08-03T21:28:54.438Z,45.97
2022-08-03T21:31:25.553Z,46.19
2022-08-03T21:34:00.572Z,46.19
2022-08-03T21:36:30.832Z,46.18
2022-08-03T21:38:59.025Z,48.22
2022-08-03T21:41:27.486Z,48.73
2022-08-03T21:43:54.299Z,49.27
2022-08-03T21:46:22.409Z,50.34
2022-08-03T21:50:06.832Z,50.30
2022-08-03T21:51:49.498Z,49.85
2022-08-03T21:54:17.878Z,49.87
2022-08-03T21:56:48.329Z,50.04
2022-08-03T21:59:20.529Z,50.63
2022-08-03T22:01:48.856Z,50.57
2022-08-03T22:04:55.541Z,51.52
2022-08-03T22:07:07.907Z,52.55
2022-08-03T22:09:35.858Z,53.55
2022-08-03T22:12:02.552Z,54.62
2022-08-03T22:14:29.992Z,55.89
2022-08-03T22:16:57.126Z,55.30
2022-08-03T22:19:24.278Z,55.35
2022-08-03T22:21:51.065Z,55.92
2022-08-03T22:24:23.818Z,56.14
2022-08-03T22:27:09.911Z,56.31
2022-08-03T22:29:39.209Z,56.08
2022-08-03T22:32:06.969Z,55.33
2022-08-03T22:34:33.911Z,55.62
2022-08-03T22:37:07.344Z,55.88
2022-08-03T22:39:35.338Z,55.50
2022-08-03T22:42:05.454Z,55.54
2022-08-03T22:44:32.716Z,55.68
2022-08-03T22:46:59.757Z,55.65
2022-08-03T22:49:28.706Z,56.02
2022-08-03T22:51:56.099Z,55.84
2022-08-03T22:54:23.687Z,55.79
2022-08-03T22:56:52.126Z,55.72
2022-08-03T22:59:39.875Z,55.66
2022-08-03T23:02:20.355Z,100.00
2022-08-03T23:04:55.020Z,100.00
2022-08-03T23:07:37.246Z,100.00
2022-08-03T23:10:10.370Z,100.00
2022-08-03T23:12:39.237Z,100.00
2022-08-03T23:15:08.777Z,100.00
2022-08-03T23:17:58.177Z,100.00
2022-08-03T23:20:27.051Z,100.00
2022-08-03T23:22:57.737Z,100.00
2022-08-03T23:25:25.379Z,100.00
2022-08-03T23:28:05.067Z,100.00
2022-08-03T23:30:35.032Z,100.00
2022-08-03T23:33:04.137Z,100.00
2022-08-03T23:36:28.146Z,100.00
2022-08-03T23:38:37.374Z,100.00
2022-08-03T23:41:05.155Z,100.00
2022-08-03T23:43:52.098Z,100.00
2022-08-03T23:46:22.265Z,55.40
2022-08-03T23:48:49.548Z,59.56
2022-08-03T23:51:36.844Z,58.30
2022-08-03T23:54:26.775Z,57.97
2022-08-03T23:57:14.182Z,57.88
